createdAt,value
2018-08-22T00:01:28.387Z,21.90
2018-08-22T00:03:56.493Z,21.90
2018-08-22T00:06:24.546Z,21.80
2018-08-22T00:08:52.742Z,21.80
2018-08-22T00:11:20.757Z,21.70
2018-08-22T00:13:48.808Z,21.70
2018-08-22T00:16:16.853Z,21.60
2018-08-22T00:18:44.904Z,21.60
2018-08-22T00:21:12.961Z,21.60
2018-08-22T00:23:41.017Z,21.60
2018-08-22T00:26:09.156Z,21.60
2018-08-22T00:28:37.209Z,21.60
2018-08-22T00:31:05.277Z,21.50
2018-08-22T00:33:33.329Z,21.50
2018-08-22T00:36:01.414Z,21.40
2018-08-22T00:38:29.461Z,21.40
2018-08-22T00:40:57.513Z,21.40
2018-08-22T00:43:25.565Z,21.30
2018-08-22T00:45:53.693Z,21.30
2018-08-22T00:48:21.769Z,21.30
2018-08-22T00:50:49.818Z,21.30
2018-08-22T00:53:17.933Z,21.30
2018-08-22T00:55:46.092Z,21.30
2018-08-22T00:58:14.169Z,21.30
2018-08-22T01:00:42.257Z,21.30
2018-08-22T01:03:10.337Z,21.30
2018-08-22T01:05:38.853Z,21.30
2018-08-22T01:08:06.920Z,21.30
2018-08-22T01:10:34.997Z,21.30
2018-08-22T01:13:03.067Z,21.20
2018-08-22T01:15:31.121Z,21.30
2018-08-22T01:17:59.192Z,21.30
2018-08-22T01:20:27.657Z,21.30
2018-08-22T01:22:55.723Z,21.30
2018-08-22T01:25:23.785Z,21.20
2018-08-22T01:27:51.857Z,21.30
2018-08-22T01:30:19.918Z,21.20
2018-08-22T01:32:48.017Z,21.30
2018-08-22T01:35:16.069Z,21.20
2018-08-22T01:37:44.133Z,21.20
2018-08-22T01:40:12.202Z,21.20
2018-08-22T01:42:40.262Z,21.20
2018-08-22T01:45:08.357Z,21.20
2018-08-22T01:47:36.440Z,21.10
2018-08-22T01:50:04.512Z,21.10
2018-08-22T01:52:32.573Z,21.00
2018-08-22T01:55:00.644Z,21.00
2018-08-22T01:57:28.706Z,21.00
2018-08-22T01:59:56.769Z,20.90
2018-08-22T02:02:24.829Z,20.90
2018-08-22T02:04:52.900Z,20.80
2018-08-22T02:07:20.961Z,20.80
2018-08-22T02:09:49.022Z,20.80
2018-08-22T02:12:17.108Z,20.80
2018-08-22T02:14:45.169Z,20.80
2018-08-22T02:17:13.232Z,20.80
2018-08-22T02:19:41.309Z,20.80
2018-08-22T02:22:09.366Z,20.70
2018-08-22T02:24:37.525Z,20.60
2018-08-22T02:27:05.718Z,20.70
2018-08-22T02:29:33.799Z,20.60
2018-08-22T02:32:02.024Z,20.60
2018-08-22T02:34:30.169Z,20.50
2018-08-22T02:36:58.229Z,20.60
2018-08-22T02:39:26.306Z,20.50
2018-08-22T02:41:54.364Z,20.50
2018-08-22T02:44:22.429Z,20.50
2018-08-22T02:46:50.557Z,20.60
2018-08-22T02:49:18.626Z,20.60
2018-08-22T02:51:46.689Z,20.50
2018-08-22T02:54:14.759Z,20.50
2018-08-22T02:56:42.844Z,20.50
2018-08-22T02:59:10.901Z,20.60
2018-08-22T03:01:38.958Z,20.50
2018-08-22T03:04:07.018Z,20.50
2018-08-22T03:06:35.074Z,20.40
2018-08-22T03:09:03.329Z,20.40
2018-08-22T03:11:31.397Z,20.50
2018-08-22T03:13:59.449Z,20.40
2018-08-22T03:16:27.502Z,20.40
2018-08-22T03:18:55.562Z,20.30
2018-08-22T03:21:23.613Z,20.30
2018-08-22T03:23:51.675Z,20.30
2018-08-22T03:26:19.721Z,20.20
2018-08-22T03:28:47.777Z,20.20
2018-08-22T03:31:15.846Z,20.20
2018-08-22T03:33:43.898Z,20.20
2018-08-22T03:36:11.962Z,20.20
2018-08-22T03:38:40.021Z,20.20
2018-08-22T03:41:08.086Z,20.10
2018-08-22T03:43:36.166Z,20.10
2018-08-22T03:46:04.230Z,20.10
2018-08-22T03:48:32.437Z,20.10
2018-08-22T03:51:00.515Z,20.10
2018-08-22T03:53:28.596Z,20.20
2018-08-22T03:55:56.651Z,20.20
2018-08-22T03:58:24.706Z,20.30
2018-08-22T04:00:52.773Z,20.20
2018-08-22T04:03:20.822Z,20.20
2018-08-22T04:05:48.881Z,20.20
2018-08-22T04:08:16.942Z,20.20
2018-08-22T04:10:45.026Z,20.20
2018-08-22T04:13:13.222Z,20.20
2018-08-22T04:15:41.282Z,20.10
2018-08-22T04:18:09.333Z,20.10
2018-08-22T04:20:37.645Z,20.10
2018-08-22T04:23:05.702Z,20.10
2018-08-22T04:25:33.759Z,20.00
2018-08-22T04:28:02.618Z,20.00
2018-08-22T04:30:30.682Z,20.10
2018-08-22T04:32:58.734Z,20.00
2018-08-22T04:35:26.797Z,20.00
2018-08-22T04:37:54.849Z,20.00
2018-08-22T04:40:22.909Z,20.00
2018-08-22T04:42:51.009Z,20.00
2018-08-22T04:45:19.065Z,20.00
2018-08-22T04:47:47.122Z,20.00
2018-08-22T04:50:15.389Z,20.00
2018-08-22T04:52:43.462Z,20.00
2018-08-22T04:55:11.561Z,20.00
2018-08-22T04:57:39.621Z,20.10
2018-08-22T05:00:08.422Z,20.00
2018-08-22T05:02:36.889Z,20.00
2018-08-22T05:05:04.993Z,20.00
2018-08-22T05:07:33.043Z,20.00
2018-08-22T05:10:01.105Z,20.00
2018-08-22T05:12:29.585Z,19.90
2018-08-22T05:14:57.653Z,20.00
2018-08-22T05:17:25.697Z,20.00
2018-08-22T05:19:53.757Z,20.00
2018-08-22T05:22:21.872Z,20.00
2018-08-22T05:24:49.982Z,20.00
2018-08-22T05:27:17.993Z,20.00
2018-08-22T05:29:46.046Z,20.00
2018-08-22T05:32:14.110Z,20.00
2018-08-22T05:34:42.157Z,20.00
2018-08-22T05:37:10.214Z,20.10
2018-08-22T05:39:38.270Z,20.10
2018-08-22T05:42:06.362Z,20.20
2018-08-22T05:44:34.417Z,20.20
2018-08-22T05:47:02.482Z,20.30
2018-08-22T05:49:30.550Z,20.30
2018-08-22T05:51:58.601Z,20.40
2018-08-22T05:54:26.664Z,20.50
2018-08-22T05:56:54.739Z,20.60
2018-08-22T05:59:22.798Z,20.60
2018-08-22T06:01:50.869Z,20.70
2018-08-22T06:04:18.929Z,20.80
2018-08-22T06:06:47.001Z,21.00
2018-08-22T06:09:15.082Z,21.20
2018-08-22T06:11:44.045Z,21.30
2018-08-22T06:14:12.542Z,21.60
2018-08-22T06:16:40.613Z,21.80
2018-08-22T06:19:08.682Z,22.10
2018-08-22T06:21:36.754Z,22.30
2018-08-22T06:24:04.829Z,22.60
2018-08-22T06:26:32.900Z,22.90
2018-08-22T06:29:00.965Z,23.10
2018-08-22T06:31:29.042Z,23.40
2018-08-22T06:33:57.115Z,23.70
2018-08-22T06:36:25.230Z,23.90
2018-08-22T06:38:53.262Z,23.90
2018-08-22T06:41:21.384Z,24.00
2018-08-22T06:43:49.393Z,24.20
2018-08-22T06:46:17.477Z,24.40
2018-08-22T06:48:45.542Z,24.60
2018-08-22T06:51:13.610Z,24.70
2018-08-22T06:53:41.698Z,24.80
2018-08-22T06:56:09.765Z,24.70
2018-08-22T06:58:37.849Z,24.60
2018-08-22T07:01:06.101Z,24.70
2018-08-22T07:03:34.381Z,24.80
2018-08-22T07:06:02.693Z,25.00
2018-08-22T07:08:30.765Z,25.20
2018-08-22T07:10:58.830Z,25.40
2018-08-22T07:13:26.893Z,25.40
2018-08-22T07:15:55.028Z,25.60
2018-08-22T07:18:23.099Z,25.60
2018-08-22T07:20:51.255Z,25.60
2018-08-22T07:23:19.313Z,25.60
2018-08-22T07:25:47.389Z,25.60
2018-08-22T07:28:15.473Z,25.50
2018-08-22T07:30:43.534Z,25.50
2018-08-22T07:33:11.622Z,25.70
2018-08-22T07:35:39.873Z,25.80
2018-08-22T07:38:08.065Z,26.10
2018-08-22T07:40:36.559Z,26.30
2018-08-22T07:43:04.632Z,26.40
2018-08-22T07:45:32.701Z,26.60
2018-08-22T07:48:00.789Z,26.80
2018-08-22T07:50:28.866Z,26.80
2018-08-22T07:53:04.030Z,26.90
2018-08-22T07:55:35.738Z,26.80
2018-08-22T07:58:04.001Z,26.80
2018-08-22T08:00:32.109Z,26.70
2018-08-22T08:03:00.507Z,26.70
2018-08-22T08:05:28.639Z,26.70
2018-08-22T08:07:56.683Z,26.80
2018-08-22T08:10:30.290Z,26.70
2018-08-22T08:12:58.365Z,26.80
2018-08-22T08:15:26.429Z,27.00
2018-08-22T08:17:54.626Z,27.20
2018-08-22T08:20:23.031Z,27.30
2018-08-22T08:22:51.114Z,27.50
2018-08-22T08:25:19.421Z,27.70
2018-08-22T08:27:47.489Z,27.80
2018-08-22T08:30:15.586Z,27.60
2018-08-22T08:32:43.925Z,27.80
2018-08-22T08:35:11.988Z,28.10
2018-08-22T08:37:40.071Z,28.30
2018-08-22T08:40:08.197Z,28.30
2018-08-22T08:42:36.312Z,28.20
2018-08-22T08:45:07.034Z,28.20
2018-08-22T08:47:35.146Z,27.90
2018-08-22T08:50:03.210Z,27.90
2018-08-22T08:52:31.319Z,27.90
2018-08-22T08:54:59.350Z,28.00
2018-08-22T08:57:27.485Z,28.20
2018-08-22T08:59:55.482Z,28.40
2018-08-22T09:02:23.546Z,28.60
2018-08-22T09:04:51.605Z,28.80
2018-08-22T09:07:19.662Z,29.10
2018-08-22T09:09:47.838Z,29.10
2018-08-22T09:12:15.918Z,29.30
2018-08-22T09:14:43.969Z,29.50
2018-08-22T09:17:12.069Z,29.50
2018-08-22T09:19:40.141Z,29.50
2018-08-22T09:22:08.182Z,29.30
2018-08-22T09:24:36.243Z,29.20
2018-08-22T09:27:04.298Z,29.10
2018-08-22T09:29:32.395Z,29.10
2018-08-22T09:32:00.429Z,29.10
2018-08-22T09:34:28.489Z,29.10
2018-08-22T09:36:56.533Z,28.80
2018-08-22T09:39:24.665Z,28.80
2018-08-22T09:41:52.658Z,28.90
2018-08-22T09:44:20.717Z,29.10
2018-08-22T09:46:48.882Z,29.40
2018-08-22T09:49:16.826Z,29.70
2018-08-22T09:51:44.892Z,29.90
2018-08-22T09:54:12.949Z,29.90
2018-08-22T09:56:41.006Z,30.00
2018-08-22T09:59:09.074Z,30.00
2018-08-22T10:01:44.145Z,30.00
2018-08-22T10:04:12.212Z,29.90
2018-08-22T10:06:43.647Z,29.50
2018-08-22T10:09:18.882Z,29.60
2018-08-22T10:11:47.076Z,29.70
2018-08-22T10:14:15.203Z,29.60
2018-08-22T10:16:43.274Z,29.60
2018-08-22T10:19:11.362Z,29.80
2018-08-22T10:21:39.421Z,30.00
2018-08-22T10:24:07.527Z,30.20
2018-08-22T10:26:35.629Z,30.10
2018-08-22T10:29:03.637Z,30.10
2018-08-22T10:31:31.690Z,30.00
2018-08-22T10:33:59.757Z,30.20
2018-08-22T10:36:27.805Z,30.20
2018-08-22T10:38:55.884Z,30.10
2018-08-22T10:41:23.938Z,30.10
2018-08-22T10:43:51.998Z,30.30
2018-08-22T10:46:20.054Z,30.30
2018-08-22T10:48:48.113Z,30.40
2018-08-22T10:51:16.201Z,30.30
2018-08-22T10:53:44.285Z,30.30
2018-08-22T10:56:12.363Z,30.40
2018-08-22T10:58:40.529Z,30.50
2018-08-22T11:01:08.598Z,30.40
2018-08-22T11:03:36.685Z,30.30
2018-08-22T11:06:04.862Z,30.30
2018-08-22T11:08:32.933Z,30.40
2018-08-22T11:11:01.002Z,30.50
2018-08-22T11:13:29.086Z,30.80
2018-08-22T11:15:57.197Z,30.80
2018-08-22T11:18:25.250Z,30.90
2018-08-22T11:20:53.193Z,30.60
2018-08-22T11:23:33.541Z,30.80
2018-08-22T11:26:13.885Z,30.90
2018-08-22T11:28:53.477Z,30.90
2018-08-22T11:31:32.961Z,31.00
2018-08-22T11:34:12.560Z,30.90
2018-08-22T11:36:40.961Z,31.00
2018-08-22T11:39:09.165Z,31.10
2018-08-22T11:41:37.221Z,31.20
2018-08-22T11:44:05.286Z,31.10
2018-08-22T11:46:33.350Z,31.00
2018-08-22T11:49:01.435Z,31.20
2018-08-22T11:51:29.522Z,31.40
2018-08-22T11:53:57.602Z,31.30
2018-08-22T11:56:25.709Z,31.30
2018-08-22T11:58:53.781Z,31.30
2018-08-22T12:01:21.857Z,31.30
2018-08-22T12:03:50.333Z,31.30
2018-08-22T12:06:18.415Z,31.20
2018-08-22T12:08:46.472Z,31.20
2018-08-22T12:11:14.555Z,31.20
2018-08-22T12:13:42.622Z,31.20
2018-08-22T12:16:10.756Z,31.20
2018-08-22T12:18:38.797Z,31.20
2018-08-22T12:21:06.916Z,31.10
2018-08-22T12:23:34.957Z,31.10
2018-08-22T12:26:03.025Z,31.20
2018-08-22T12:28:31.090Z,31.10
2018-08-22T12:30:59.180Z,30.90
2018-08-22T12:33:27.234Z,30.80
2018-08-22T12:35:55.322Z,30.80
2018-08-22T12:38:23.706Z,31.10
2018-08-22T12:40:51.781Z,31.10
2018-08-22T12:43:19.844Z,31.00
2018-08-22T12:45:47.913Z,31.10
2018-08-22T12:48:16.089Z,31.00
2018-08-22T12:50:44.138Z,31.20
2018-08-22T12:53:12.214Z,31.00
2018-08-22T12:55:40.435Z,31.20
2018-08-22T12:58:08.477Z,31.20
2018-08-22T13:00:36.549Z,31.20
2018-08-22T13:03:04.630Z,31.10
2018-08-22T13:05:32.709Z,31.20
2018-08-22T13:08:00.790Z,31.20
2018-08-22T13:10:28.862Z,31.20
2018-08-22T13:12:56.922Z,31.40
2018-08-22T13:15:24.993Z,31.50
2018-08-22T13:17:53.066Z,31.40
2018-08-22T13:20:21.147Z,31.30
2018-08-22T13:22:49.205Z,31.30
2018-08-22T13:25:17.310Z,31.40
2018-08-22T13:27:45.381Z,31.30
2018-08-22T13:30:13.670Z,31.20
2018-08-22T13:32:41.729Z,31.20
2018-08-22T13:35:09.813Z,31.10
2018-08-22T13:37:37.889Z,31.10
2018-08-22T13:40:05.982Z,31.10
2018-08-22T13:42:34.070Z,31.10
2018-08-22T13:45:02.155Z,31.10
2018-08-22T13:47:30.321Z,31.20
2018-08-22T13:49:58.369Z,31.10
2018-08-22T13:52:26.516Z,31.10
2018-08-22T13:54:54.754Z,31.10
2018-08-22T13:57:22.817Z,31.20
2018-08-22T13:59:50.873Z,31.20
2018-08-22T14:02:18.941Z,31.30
2018-08-22T14:04:47.009Z,31.30
2018-08-22T14:07:15.159Z,31.30
2018-08-22T14:09:43.214Z,31.20
2018-08-22T14:12:11.285Z,31.20
2018-08-22T14:14:39.345Z,31.00
2018-08-22T14:17:07.618Z,30.80
2018-08-22T14:19:35.686Z,30.90
2018-08-22T14:22:03.754Z,31.00
2018-08-22T14:24:31.818Z,31.00
2018-08-22T14:26:59.873Z,30.90
2018-08-22T14:29:27.941Z,30.80
2018-08-22T14:31:56.031Z,30.70
2018-08-22T14:34:24.069Z,30.80
2018-08-22T14:36:52.445Z,30.80
2018-08-22T14:39:20.532Z,30.70
2018-08-22T14:41:48.558Z,30.80
2018-08-22T14:44:16.652Z,30.90
2018-08-22T14:46:44.717Z,31.00
2018-08-22T14:49:12.782Z,31.00
2018-08-22T14:51:40.959Z,30.90
2018-08-22T14:54:09.033Z,30.90
2018-08-22T14:56:37.229Z,30.90
2018-08-22T14:59:05.618Z,30.80
2018-08-22T15:01:33.712Z,30.90
2018-08-22T15:04:01.778Z,30.90
2018-08-22T15:06:29.854Z,30.90
2018-08-22T15:09:03.078Z,30.90
2018-08-22T15:11:31.159Z,30.80
2018-08-22T15:13:59.221Z,30.80
2018-08-22T15:16:27.302Z,30.70
2018-08-22T15:18:55.465Z,30.80
2018-08-22T15:21:23.553Z,30.70
2018-08-22T15:23:52.285Z,30.60
2018-08-22T15:26:20.362Z,30.60
2018-08-22T15:28:48.427Z,30.50
2018-08-22T15:31:16.510Z,30.60
2018-08-22T15:33:45.083Z,30.50
2018-08-22T15:36:13.149Z,30.30
2018-08-22T15:38:41.245Z,30.40
2018-08-22T15:41:09.338Z,30.40
2018-08-22T15:43:37.395Z,30.40
2018-08-22T15:46:05.477Z,30.40
2018-08-22T15:48:33.549Z,30.30
2018-08-22T15:51:01.829Z,30.20
2018-08-22T15:53:30.261Z,30.10
2018-08-22T15:55:58.341Z,30.20
2018-08-22T15:58:26.419Z,30.20
2018-08-22T16:00:54.873Z,30.20
2018-08-22T16:03:24.110Z,30.10
2018-08-22T16:05:52.810Z,30.10
2018-08-22T16:08:22.535Z,30.10
2018-08-22T16:10:50.598Z,29.90
2018-08-22T16:13:24.070Z,29.90
2018-08-22T16:15:53.404Z,29.90
2018-08-22T16:18:21.709Z,29.90
2018-08-22T16:20:57.787Z,29.80
2018-08-22T16:23:27.116Z,29.90
2018-08-22T16:25:55.934Z,29.80
2018-08-22T16:28:24.714Z,29.80
2018-08-22T16:30:57.111Z,29.80
2018-08-22T16:33:22.241Z,29.80
2018-08-22T16:35:50.315Z,29.80
2018-08-22T16:38:18.438Z,29.90
2018-08-22T16:40:49.319Z,29.80
2018-08-22T16:43:34.482Z,29.70
2018-08-22T16:46:04.663Z,29.60
2018-08-22T16:48:32.739Z,29.50
2018-08-22T16:51:00.798Z,29.40
2018-08-22T16:53:28.882Z,29.40
2018-08-22T16:55:56.955Z,29.40
2018-08-22T16:58:25.544Z,29.50
2018-08-22T17:00:53.597Z,29.40
2018-08-22T17:03:21.749Z,29.40
2018-08-22T17:05:49.822Z,29.30
2018-08-22T17:08:17.945Z,29.30
2018-08-22T17:10:56.281Z,29.30
2018-08-22T17:13:31.496Z,29.30
2018-08-22T17:16:00.881Z,29.10
2018-08-22T17:18:29.063Z,29.10
2018-08-22T17:20:57.129Z,29.00
2018-08-22T17:23:25.202Z,29.00
2018-08-22T17:25:53.284Z,29.00
2018-08-22T17:28:24.956Z,28.90
2018-08-22T17:30:53.046Z,28.80
2018-08-22T17:33:24.389Z,28.80
2018-08-22T17:35:57.046Z,28.80
2018-08-22T17:38:25.594Z,28.80
2018-08-22T17:40:53.660Z,28.70
2018-08-22T17:43:21.757Z,28.60
2018-08-22T17:45:49.826Z,28.60
2018-08-22T17:48:17.906Z,28.50
2018-08-22T17:50:45.973Z,28.50
2018-08-22T17:53:14.063Z,28.40
2018-08-22T17:55:42.122Z,28.30
2018-08-22T17:58:10.194Z,28.20
2018-08-22T18:00:38.830Z,28.20
2018-08-22T18:03:06.913Z,28.10
2018-08-22T18:05:36.039Z,28.00
2018-08-22T18:08:06.013Z,27.90
2018-08-22T18:10:36.232Z,27.90
2018-08-22T18:13:08.541Z,27.90
2018-08-22T18:15:36.614Z,27.90
2018-08-22T18:18:05.374Z,27.80
2018-08-22T18:20:37.660Z,27.80
2018-08-22T18:23:05.757Z,27.80
2018-08-22T18:25:35.002Z,27.70
2018-08-22T18:28:06.225Z,27.70
2018-08-22T18:30:35.177Z,27.60
2018-08-22T18:33:03.961Z,27.50
2018-08-22T18:35:31.997Z,27.40
2018-08-22T18:38:00.069Z,27.40
2018-08-22T18:40:29.638Z,27.30
2018-08-22T18:42:59.526Z,27.30
2018-08-22T18:45:27.966Z,27.30
2018-08-22T18:47:56.060Z,27.20
2018-08-22T18:50:24.427Z,27.20
2018-08-22T18:52:54.473Z,27.10
2018-08-22T18:55:24.713Z,27.00
2018-08-22T18:57:54.069Z,27.00
2018-08-22T19:00:22.184Z,26.90
2018-08-22T19:02:53.618Z,26.90
2018-08-22T19:05:24.470Z,26.80
2018-08-22T19:08:09.693Z,26.70
2018-08-22T19:10:39.938Z,26.50
2018-08-22T19:13:13.497Z,26.40
2018-08-22T19:15:41.574Z,26.30
2018-08-22T19:18:10.277Z,26.20
2018-08-22T19:20:38.671Z,26.20
2018-08-22T19:23:06.847Z,26.20
2018-08-22T19:25:34.962Z,26.10
2018-08-22T19:28:03.374Z,26.10
2018-08-22T19:30:33.940Z,26.00
2018-08-22T19:33:02.962Z,26.00
2018-08-22T19:35:31.005Z,25.90
2018-08-22T19:38:04.885Z,25.90
2018-08-22T19:40:32.952Z,25.80
2018-08-22T19:43:01.275Z,25.80
2018-08-22T19:45:29.366Z,25.70
2018-08-22T19:47:57.438Z,25.60
2018-08-22T19:50:25.510Z,25.60
2018-08-22T19:52:53.791Z,25.60
2018-08-22T19:55:22.553Z,25.60
2018-08-22T19:57:50.840Z,25.60
2018-08-22T20:00:19.039Z,25.50
2018-08-22T20:02:46.970Z,25.40
2018-08-22T20:05:15.094Z,25.40
2018-08-22T20:07:43.174Z,25.40
2018-08-22T20:10:11.812Z,25.40
2018-08-22T20:12:47.136Z,25.40
2018-08-22T20:15:15.241Z,25.30
2018-08-22T20:17:46.049Z,25.30
2018-08-22T20:20:14.129Z,25.20
2018-08-22T20:22:43.455Z,25.00
2018-08-22T20:25:11.945Z,24.90
2018-08-22T20:27:40.245Z,24.90
2018-08-22T20:30:24.368Z,24.80
2018-08-22T20:32:59.101Z,24.80
2018-08-22T20:35:31.223Z,24.70
2018-08-22T20:38:07.134Z,24.70
2018-08-22T20:40:35.212Z,24.60
2018-08-22T20:43:03.313Z,24.60
2018-08-22T20:45:38.341Z,24.40
2018-08-22T20:48:08.453Z,24.30
2018-08-22T20:50:37.826Z,24.20
2018-08-22T20:53:07.626Z,24.20
2018-08-22T20:55:35.722Z,24.10
2018-08-22T20:58:04.213Z,24.20
2018-08-22T21:00:33.804Z,24.30
2018-08-22T21:03:01.958Z,24.20
2018-08-22T21:05:29.970Z,24.00
2018-08-22T21:07:58.033Z,24.00
2018-08-22T21:10:26.109Z,23.90
2018-08-22T21:12:54.218Z,23.90
2018-08-22T21:15:22.288Z,23.80
2018-08-22T21:17:50.365Z,23.80
2018-08-22T21:20:24.495Z,23.80
2018-08-22T21:22:53.398Z,23.70
2018-08-22T21:25:21.465Z,23.70
2018-08-22T21:27:50.068Z,23.70
2018-08-22T21:30:18.356Z,23.60
2018-08-22T21:32:47.421Z,23.50
2018-08-22T21:35:21.030Z,23.50
2018-08-22T21:37:49.101Z,23.50
2018-08-22T21:40:17.179Z,23.50
2018-08-22T21:42:45.250Z,23.40
2018-08-22T21:45:13.353Z,23.40
2018-08-22T21:47:41.418Z,23.40
2018-08-22T21:50:09.505Z,23.30
2018-08-22T21:53:01.193Z,23.30
2018-08-22T21:55:34.765Z,23.20
2018-08-22T21:58:03.122Z,23.20
2018-08-22T22:00:31.181Z,23.20
2018-08-22T22:02:59.242Z,23.20
2018-08-22T22:05:38.765Z,23.20
2018-08-22T22:08:07.385Z,23.10
2018-08-22T22:10:35.450Z,23.10
2018-08-22T22:13:03.510Z,23.00
2018-08-22T22:15:36.959Z,22.90
2018-08-22T22:18:05.478Z,22.90
2018-08-22T22:20:33.546Z,22.80
2018-08-22T22:23:01.601Z,22.70
2018-08-22T22:25:29.667Z,22.70
2018-08-22T22:27:57.722Z,22.70
2018-08-22T22:30:25.792Z,22.70
2018-08-22T22:32:53.846Z,22.70
2018-08-22T22:35:26.149Z,22.60
2018-08-22T22:37:58.797Z,22.60
2018-08-22T22:40:28.846Z,22.50
2018-08-22T22:42:57.074Z,22.60
2018-08-22T22:45:25.133Z,22.40
2018-08-22T22:47:53.197Z,22.30
2018-08-22T22:50:21.957Z,22.30
2018-08-22T22:52:50.057Z,22.30
2018-08-22T22:55:18.125Z,22.30
2018-08-22T22:57:46.181Z,22.20
2018-08-22T23:00:15.692Z,22.20
2018-08-22T23:02:44.393Z,22.10
2018-08-22T23:05:12.474Z,22.10
2018-08-22T23:07:41.502Z,22.00
2018-08-22T23:10:10.925Z,22.00
2018-08-22T23:12:41.839Z,22.00
2018-08-22T23:15:13.806Z,21.90
2018-08-22T23:17:42.290Z,21.90
2018-08-22T23:20:24.058Z,21.90
2018-08-22T23:22:52.157Z,21.90
2018-08-22T23:25:20.278Z,21.80
2018-08-22T23:27:48.361Z,21.80
2018-08-22T23:30:17.621Z,21.70
2018-08-22T23:32:45.749Z,21.70
2018-08-22T23:35:35.835Z,21.70
2018-08-22T23:38:05.061Z,21.80
2018-08-22T23:40:34.281Z,21.80
2018-08-22T23:43:02.350Z,21.80
2018-08-22T23:45:30.418Z,21.90
2018-08-22T23:47:58.556Z,21.80
2018-08-22T23:50:36.747Z,21.70
2018-08-22T23:53:04.834Z,21.60
2018-08-22T23:55:32.902Z,21.50
2018-08-22T23:58:00.979Z,21.50
